createdAt,value
2023-04-27T00:00:14.683Z,14.93
2023-04-27T00:01:14.754Z,15.56
2023-04-27T00:02:14.912Z,15.84
2023-04-27T00:03:15.056Z,15.15
2023-04-27T00:04:15.031Z,15.44
2023-04-27T00:05:15.228Z,15.36
2023-04-27T00:06:15.058Z,15.20
2023-04-27T00:07:15.066Z,15.08
2023-04-27T00:08:15.134Z,16.08
2023-04-27T00:09:15.386Z,15.96
2023-04-27T00:10:15.195Z,15.33
2023-04-27T00:11:15.314Z,15.51
2023-04-27T00:12:15.358Z,16.55
2023-04-27T00:13:15.387Z,16.13
2023-04-27T00:14:15.491Z,16.70
2023-04-27T00:15:15.509Z,16.76
2023-04-27T00:16:15.564Z,16.93
2023-04-27T00:17:15.630Z,17.06
2023-04-27T00:18:15.699Z,17.12
2023-04-27T00:19:15.968Z,17.36
2023-04-27T00:20:15.827Z,16.75
2023-04-27T00:21:15.902Z,16.92
2023-04-27T00:22:16.093Z,17.42
2023-04-27T00:23:16.031Z,16.86
2023-04-27T00:24:16.069Z,16.63
2023-04-27T00:25:16.134Z,16.23
2023-04-27T00:26:16.192Z,16.27
2023-04-27T00:27:16.242Z,17.17
2023-04-27T00:28:16.261Z,15.90
2023-04-27T00:29:16.328Z,15.79
2023-04-27T00:30:17.211Z,16.56
2023-04-27T00:31:16.501Z,16.20
2023-04-27T00:32:16.510Z,15.91
2023-04-27T00:33:16.521Z,16.08
2023-04-27T00:34:16.557Z,16.37
2023-04-27T00:35:16.653Z,16.20
2023-04-27T00:36:16.744Z,15.59
2023-04-27T00:37:16.765Z,14.44
2023-04-27T00:38:16.767Z,14.29
2023-04-27T00:39:16.836Z,14.41
2023-04-27T00:40:16.884Z,13.82
2023-04-27T00:41:16.928Z,13.80
2023-04-27T00:42:16.978Z,13.88
2023-04-27T00:43:17.027Z,14.28
2023-04-27T00:44:17.080Z,13.89
2023-04-27T00:45:17.148Z,14.34
2023-04-27T00:46:17.231Z,14.43
2023-04-27T00:47:17.246Z,14.43
2023-04-27T00:48:17.303Z,14.28
2023-04-27T00:49:17.389Z,13.55
2023-04-27T00:50:17.440Z,13.13
2023-04-27T00:51:17.490Z,13.67
2023-04-27T00:52:17.524Z,12.99
2023-04-27T00:53:17.609Z,13.38
2023-04-27T00:54:17.661Z,13.32
2023-04-27T00:55:17.737Z,12.92
2023-04-27T00:56:17.782Z,12.94
2023-04-27T00:57:17.863Z,13.37
2023-04-27T00:58:17.922Z,12.77
2023-04-27T00:59:17.991Z,13.10
2023-04-27T01:00:18.052Z,12.83
2023-04-27T01:01:18.170Z,13.06
2023-04-27T01:02:18.252Z,12.85
2023-04-27T01:03:18.393Z,12.96
2023-04-27T01:04:18.576Z,12.75
2023-04-27T01:05:18.373Z,12.29
2023-04-27T01:06:18.417Z,12.31
2023-04-27T01:07:18.493Z,12.18
2023-04-27T01:08:18.563Z,12.61
2023-04-27T01:09:18.603Z,12.51
2023-04-27T01:10:18.673Z,12.67
2023-04-27T01:11:18.741Z,12.43
2023-04-27T01:12:18.781Z,12.12
2023-04-27T01:13:18.858Z,11.64
2023-04-27T01:14:18.930Z,11.22
2023-04-27T01:15:18.955Z,11.31
2023-04-27T01:16:19.043Z,11.66
2023-04-27T01:17:19.057Z,12.07
2023-04-27T01:18:19.075Z,11.69
2023-04-27T01:19:19.073Z,11.56
2023-04-27T01:20:19.150Z,11.90
2023-04-27T01:21:19.162Z,11.97
2023-04-27T01:22:19.231Z,12.08
2023-04-27T01:23:19.264Z,12.14
2023-04-27T01:24:19.280Z,12.57
2023-04-27T01:25:19.339Z,11.76
2023-04-27T01:26:19.373Z,11.48
2023-04-27T01:27:19.406Z,11.64
2023-04-27T01:28:19.431Z,11.96
2023-04-27T01:29:19.430Z,12.07
2023-04-27T01:30:19.461Z,12.33
2023-04-27T01:31:19.516Z,12.65
2023-04-27T01:32:19.551Z,12.71
2023-04-27T01:33:19.568Z,12.88
2023-04-27T01:34:19.592Z,13.19
2023-04-27T01:35:19.624Z,12.41
2023-04-27T01:36:19.672Z,13.70
2023-04-27T01:37:19.736Z,13.63
2023-04-27T01:38:19.740Z,13.27
2023-04-27T01:39:19.779Z,13.18
2023-04-27T01:40:19.846Z,12.96
2023-04-27T01:41:19.870Z,12.60
2023-04-27T01:42:19.913Z,13.12
2023-04-27T01:43:19.968Z,13.56
2023-04-27T01:44:19.983Z,13.62
2023-04-27T01:45:20.549Z,12.81
2023-04-27T01:46:20.324Z,13.55
2023-04-27T01:47:20.155Z,13.64
2023-04-27T01:48:20.212Z,13.70
2023-04-27T01:49:20.274Z,13.53
2023-04-27T01:50:20.332Z,13.42
2023-04-27T01:51:20.391Z,13.05
2023-04-27T01:52:20.463Z,13.29
2023-04-27T01:53:20.484Z,13.10
2023-04-27T01:54:20.489Z,12.77
2023-04-27T01:55:20.536Z,12.66
2023-04-27T01:56:20.562Z,12.85
2023-04-27T01:57:20.640Z,13.07
2023-04-27T01:58:20.627Z,12.08
2023-04-27T01:59:20.647Z,12.12
2023-04-27T02:00:20.695Z,12.62
2023-04-27T02:01:20.732Z,12.66
2023-04-27T02:02:20.924Z,12.77
2023-04-27T02:03:21.002Z,12.43
2023-04-27T02:04:21.006Z,13.06
2023-04-27T02:05:20.913Z,13.15
2023-04-27T02:06:20.956Z,13.42
2023-04-27T02:07:21.056Z,13.81
2023-04-27T02:08:21.095Z,14.97
2023-04-27T02:09:21.198Z,15.41
2023-04-27T02:10:21.178Z,15.59
2023-04-27T02:11:21.279Z,16.44
2023-04-27T02:12:21.288Z,17.76
2023-04-27T02:13:21.386Z,20.68
2023-04-27T02:14:21.426Z,22.72
2023-04-27T02:15:21.492Z,25.66
2023-04-27T02:16:21.543Z,26.93
2023-04-27T02:17:21.535Z,27.73
2023-04-27T02:18:21.586Z,28.60
2023-04-27T02:19:21.626Z,28.44
2023-04-27T02:20:21.674Z,27.37
2023-04-27T02:21:21.712Z,25.73
2023-04-27T02:22:21.713Z,26.18
2023-04-27T02:23:21.767Z,26.49
2023-04-27T02:24:21.781Z,26.35
2023-04-27T02:25:21.797Z,26.17
2023-04-27T02:26:21.863Z,25.72
2023-04-27T02:27:21.867Z,26.21
2023-04-27T02:28:21.917Z,25.98
2023-04-27T02:29:21.878Z,24.82
2023-04-27T02:30:21.923Z,25.15
2023-04-27T02:31:21.958Z,25.02
2023-04-27T02:32:21.949Z,24.88
2023-04-27T02:33:21.960Z,25.02
2023-04-27T02:34:21.970Z,24.83
2023-04-27T02:35:21.958Z,24.80
2023-04-27T02:36:21.976Z,24.25
2023-04-27T02:37:22.012Z,24.35
2023-04-27T02:38:21.991Z,23.65
2023-04-27T02:39:21.997Z,23.50
2023-04-27T02:40:22.002Z,24.05
2023-04-27T02:41:22.127Z,23.78
2023-04-27T02:42:22.015Z,23.72
2023-04-27T02:43:22.014Z,23.04
2023-04-27T02:44:22.001Z,23.66
2023-04-27T02:45:21.984Z,23.78
2023-04-27T02:46:22.046Z,23.30
2023-04-27T02:47:21.987Z,23.82
2023-04-27T02:48:21.973Z,23.92
2023-04-27T02:49:21.957Z,23.53
2023-04-27T02:50:21.961Z,24.32
2023-04-27T02:51:21.948Z,24.06
2023-04-27T02:52:21.940Z,23.54
2023-04-27T02:53:21.970Z,24.04
2023-04-27T02:54:21.939Z,23.31
2023-04-27T02:55:21.935Z,23.79
2023-04-27T02:56:21.985Z,23.13
2023-04-27T02:57:21.963Z,23.24
2023-04-27T02:58:21.956Z,23.01
2023-04-27T02:59:21.962Z,22.94
2023-04-27T03:00:22.042Z,22.74
2023-04-27T03:01:22.093Z,22.98
2023-04-27T03:02:22.115Z,23.14
2023-04-27T03:03:22.121Z,22.78
2023-04-27T03:04:22.154Z,22.59
2023-04-27T03:05:22.103Z,22.83
2023-04-27T03:06:22.080Z,23.05
2023-04-27T03:07:22.131Z,22.67
2023-04-27T03:08:22.151Z,23.18
2023-04-27T03:09:22.182Z,23.07
2023-04-27T03:10:22.247Z,23.30
2023-04-27T03:11:22.272Z,23.10
2023-04-27T03:12:22.305Z,23.78
2023-04-27T03:13:22.389Z,23.58
2023-04-27T03:14:22.364Z,22.88
2023-04-27T03:15:22.421Z,22.65
2023-04-27T03:16:22.509Z,23.35
2023-04-27T03:17:22.556Z,22.74
2023-04-27T03:18:22.584Z,23.00
2023-04-27T03:19:22.628Z,22.74
2023-04-27T03:20:22.703Z,22.02
2023-04-27T03:21:22.729Z,22.52
2023-04-27T03:22:22.783Z,22.32
2023-04-27T03:23:22.872Z,22.37
2023-04-27T03:24:22.911Z,21.66
2023-04-27T03:25:22.961Z,21.53
2023-04-27T03:26:23.031Z,21.52
2023-04-27T03:27:23.072Z,21.48
2023-04-27T03:28:23.153Z,21.54
2023-04-27T03:29:23.206Z,21.93
2023-04-27T03:30:23.279Z,21.04
2023-04-27T03:31:23.342Z,21.41
2023-04-27T03:32:23.400Z,21.22
2023-04-27T03:33:23.430Z,21.59
2023-04-27T03:34:23.514Z,21.56
2023-04-27T03:35:23.553Z,21.19
2023-04-27T03:36:23.651Z,20.83
2023-04-27T03:37:23.716Z,20.38
2023-04-27T03:38:23.763Z,20.68
2023-04-27T03:39:23.841Z,21.06
2023-04-27T03:40:23.861Z,20.63
2023-04-27T03:41:23.914Z,20.45
2023-04-27T03:42:23.982Z,20.71
2023-04-27T03:43:24.063Z,20.13
2023-04-27T03:44:24.104Z,20.34
2023-04-27T03:45:24.177Z,20.09
2023-04-27T03:46:24.289Z,20.30
2023-04-27T03:47:24.396Z,19.79
2023-04-27T03:48:24.361Z,19.77
2023-04-27T03:49:24.393Z,19.52
2023-04-27T03:50:24.476Z,19.75
2023-04-27T03:51:24.517Z,20.11
2023-04-27T03:52:24.586Z,19.65
2023-04-27T03:53:24.646Z,20.48
2023-04-27T03:54:24.688Z,20.53
2023-04-27T03:55:24.761Z,20.40
2023-04-27T03:56:24.864Z,20.91
2023-04-27T03:57:24.875Z,20.98
2023-04-27T03:58:24.948Z,20.92
2023-04-27T03:59:25.001Z,21.19
2023-04-27T04:00:25.048Z,21.23
2023-04-27T04:01:25.096Z,21.29
2023-04-27T04:02:25.317Z,20.82
2023-04-27T04:03:25.523Z,21.61
2023-04-27T04:04:25.444Z,21.04
2023-04-27T04:05:25.378Z,21.05
2023-04-27T04:06:25.444Z,20.76
2023-04-27T04:07:25.517Z,20.62
2023-04-27T04:08:25.568Z,21.09
2023-04-27T04:09:25.596Z,20.78
2023-04-27T04:10:25.673Z,21.27
2023-04-27T04:11:25.719Z,20.94
2023-04-27T04:12:25.802Z,21.41
2023-04-27T04:13:25.832Z,21.44
2023-04-27T04:14:25.896Z,21.01
2023-04-27T04:15:25.931Z,20.50
2023-04-27T04:16:26.049Z,20.41
2023-04-27T04:17:26.105Z,20.46
2023-04-27T04:18:26.135Z,20.34
2023-04-27T04:19:26.182Z,20.12
2023-04-27T04:20:26.250Z,20.66
2023-04-27T04:21:26.310Z,20.79
2023-04-27T04:22:26.389Z,20.01
2023-04-27T04:23:26.410Z,19.84
2023-04-27T04:24:26.462Z,20.12
2023-04-27T04:25:26.535Z,19.94
2023-04-27T04:26:26.569Z,20.11
2023-04-27T04:27:26.626Z,20.53
2023-04-27T04:28:26.688Z,20.10
2023-04-27T04:29:26.741Z,20.33
2023-04-27T04:30:26.831Z,20.51
2023-04-27T04:31:26.918Z,20.13
2023-04-27T04:32:26.898Z,19.71
2023-04-27T04:33:27.810Z,19.77
2023-04-27T04:34:27.007Z,20.73
2023-04-27T04:35:27.042Z,20.45
2023-04-27T04:36:27.127Z,20.90
2023-04-27T04:37:27.163Z,21.31
2023-04-27T04:38:27.234Z,20.83
2023-04-27T04:39:27.290Z,21.69
2023-04-27T04:40:27.340Z,21.89
2023-04-27T04:41:27.397Z,21.55
2023-04-27T04:42:27.648Z,22.30
2023-04-27T04:43:27.524Z,21.74
2023-04-27T04:44:27.539Z,22.37
2023-04-27T04:45:27.594Z,23.19
2023-04-27T04:46:27.671Z,22.87
2023-04-27T04:47:27.787Z,23.57
2023-04-27T04:48:27.786Z,23.24
2023-04-27T04:49:27.885Z,23.31
2023-04-27T04:50:27.996Z,23.38
2023-04-27T04:51:27.999Z,23.47
2023-04-27T04:52:28.055Z,22.78
2023-04-27T04:53:28.081Z,23.38
2023-04-27T04:54:28.179Z,22.85
2023-04-27T04:55:28.206Z,23.71
2023-04-27T04:56:28.247Z,23.35
2023-04-27T04:57:28.347Z,23.48
2023-04-27T04:58:28.404Z,23.38
2023-04-27T04:59:29.872Z,24.03
2023-04-27T05:00:28.447Z,23.81
2023-04-27T05:01:35.468Z,24.42
2023-04-27T05:02:28.589Z,24.49
2023-04-27T05:03:28.572Z,24.70
2023-04-27T05:04:28.574Z,24.58
2023-04-27T05:05:28.393Z,24.61
2023-04-27T05:06:28.415Z,25.07
2023-04-27T05:07:28.408Z,25.39
2023-04-27T05:08:28.373Z,25.02
2023-04-27T05:09:28.417Z,25.18
2023-04-27T05:10:28.331Z,24.64
2023-04-27T05:11:28.352Z,24.63
2023-04-27T05:12:28.394Z,25.43
2023-04-27T05:13:28.343Z,25.81
2023-04-27T05:14:28.314Z,25.47
2023-04-27T05:15:28.310Z,25.27
2023-04-27T05:16:28.366Z,24.51
2023-04-27T05:17:28.362Z,24.49
2023-04-27T05:18:28.331Z,24.80
2023-04-27T05:19:28.314Z,24.59
2023-04-27T05:20:28.298Z,25.44
2023-04-27T05:21:28.269Z,25.02
2023-04-27T05:22:28.310Z,24.85
2023-04-27T05:23:28.259Z,25.16
2023-04-27T05:24:28.267Z,24.92
2023-04-27T05:25:28.250Z,25.71
2023-04-27T05:26:28.270Z,25.58
2023-04-27T05:27:28.352Z,24.24
2023-04-27T05:28:28.343Z,21.54
2023-04-27T05:29:28.347Z,19.49
2023-04-27T05:30:28.317Z,19.32
2023-04-27T05:31:28.374Z,18.71
2023-04-27T05:32:28.429Z,21.36
2023-04-27T05:33:28.905Z,28.19
2023-04-27T05:34:28.445Z,35.31
2023-04-27T05:35:28.540Z,36.80
2023-04-27T05:36:28.566Z,40.22
2023-04-27T05:37:28.685Z,50.55
2023-04-27T05:38:28.646Z,55.01
2023-04-27T05:39:28.691Z,60.52
2023-04-27T05:40:28.793Z,67.88
2023-04-27T05:41:28.803Z,82.49
2023-04-27T05:42:28.847Z,86.30
2023-04-27T05:43:28.847Z,94.57
2023-04-27T05:44:28.876Z,115.97
2023-04-27T05:45:36.757Z,174.62
2023-04-27T05:46:28.974Z,175.00
2023-04-27T05:47:28.921Z,175.37
2023-04-27T05:48:29.048Z,175.65
2023-04-27T05:49:29.443Z,180.47
2023-04-27T05:50:28.873Z,196.31
2023-04-27T05:51:28.823Z,205.07
2023-04-27T05:52:28.850Z,213.97
2023-04-27T05:53:28.896Z,230.86
2023-04-27T05:54:28.864Z,241.66
2023-04-27T05:55:28.821Z,263.80
2023-04-27T05:56:28.858Z,288.71
2023-04-27T05:57:28.821Z,298.36
2023-04-27T05:58:28.809Z,308.52
2023-04-27T05:59:28.868Z,319.81
2023-04-27T06:00:28.808Z,321.41
2023-04-27T06:01:28.838Z,308.21
2023-04-27T06:02:28.923Z,208.22
2023-04-27T06:03:29.182Z,157.44
2023-04-27T06:04:29.064Z,126.80
2023-04-27T06:05:29.034Z,116.29
2023-04-27T06:06:28.956Z,105.56
2023-04-27T06:07:28.984Z,108.72
2023-04-27T06:08:28.985Z,107.59
2023-04-27T06:09:29.005Z,95.39
2023-04-27T06:10:29.098Z,89.87
2023-04-27T06:11:29.041Z,81.23
2023-04-27T06:12:29.007Z,79.56
2023-04-27T06:13:29.037Z,73.57
2023-04-27T06:14:29.047Z,72.62
2023-04-27T06:15:29.099Z,93.00
2023-04-27T06:16:29.136Z,125.01
2023-04-27T06:17:29.138Z,157.69
2023-04-27T06:18:29.473Z,165.90
2023-04-27T06:19:29.123Z,175.09
2023-04-27T06:20:29.110Z,180.26
2023-04-27T06:21:29.167Z,193.85
2023-04-27T06:22:29.232Z,201.54
2023-04-27T06:23:29.332Z,213.89
2023-04-27T06:24:29.346Z,219.89
2023-04-27T06:25:29.416Z,230.29
2023-04-27T06:26:29.416Z,247.06
2023-04-27T06:27:29.460Z,270.55
2023-04-27T06:28:29.474Z,289.72
2023-04-27T06:29:29.475Z,325.81
2023-04-27T06:30:29.511Z,343.89
2023-04-27T06:31:29.554Z,375.41
2023-04-27T06:32:29.598Z,403.34
2023-04-27T06:33:29.565Z,417.78
2023-04-27T06:34:29.579Z,439.62
2023-04-27T06:35:29.591Z,458.25
2023-04-27T06:36:29.584Z,521.64
2023-04-27T06:37:29.638Z,426.78
2023-04-27T06:38:29.710Z,355.40
2023-04-27T06:39:29.711Z,305.68
2023-04-27T06:40:29.729Z,269.00
2023-04-27T06:41:29.933Z,237.59
2023-04-27T06:42:29.858Z,222.88
2023-04-27T06:43:31.324Z,237.93
2023-04-27T06:44:29.909Z,260.97
2023-04-27T06:45:29.958Z,275.62
2023-04-27T06:46:30.066Z,280.33
2023-04-27T06:47:30.015Z,292.96
2023-04-27T06:48:30.151Z,308.12
2023-04-27T06:49:30.020Z,315.96
2023-04-27T06:50:30.089Z,322.80
2023-04-27T06:51:30.131Z,327.89
2023-04-27T06:52:30.163Z,329.73
2023-04-27T06:53:30.233Z,346.97
2023-04-27T06:54:30.254Z,355.24
2023-04-27T06:55:30.326Z,365.00
2023-04-27T06:56:30.344Z,378.37
2023-04-27T06:57:30.384Z,394.14
2023-04-27T06:58:30.383Z,403.38
2023-04-27T06:59:30.438Z,406.41
2023-04-27T07:00:30.403Z,411.27
2023-04-27T07:01:30.475Z,421.95
2023-04-27T07:02:30.656Z,432.28
2023-04-27T07:03:30.717Z,421.78
2023-04-27T07:04:30.613Z,431.33
2023-04-27T07:05:30.519Z,427.11
2023-04-27T07:06:30.581Z,445.94
2023-04-27T07:07:30.594Z,442.50
2023-04-27T07:08:30.926Z,346.25
2023-04-27T07:09:30.819Z,275.16
2023-04-27T07:10:30.687Z,220.70
2023-04-27T07:11:31.357Z,191.71
2023-04-27T07:12:30.754Z,186.50
2023-04-27T07:13:30.807Z,188.91
2023-04-27T07:14:30.877Z,191.42
2023-04-27T07:15:30.929Z,192.72
2023-04-27T07:16:31.018Z,192.05
2023-04-27T07:17:31.052Z,191.46
2023-04-27T07:18:31.024Z,201.95
2023-04-27T07:19:31.076Z,203.19
2023-04-27T07:20:31.096Z,167.41
2023-04-27T07:21:31.132Z,173.96
2023-04-27T07:22:31.132Z,184.22
2023-04-27T07:23:31.194Z,191.80
2023-04-27T07:24:31.175Z,192.70
2023-04-27T07:25:31.189Z,189.62
2023-04-27T07:26:31.165Z,187.75
2023-04-27T07:27:31.211Z,188.47
2023-04-27T07:28:31.186Z,190.93
2023-04-27T07:29:31.725Z,189.84
2023-04-27T07:30:31.250Z,184.04
2023-04-27T07:31:31.261Z,113.36
2023-04-27T07:32:31.272Z,61.87
2023-04-27T07:33:31.288Z,49.97
2023-04-27T07:34:41.124Z,36.28
2023-04-27T07:35:32.289Z,29.80
2023-04-27T07:36:31.300Z,30.35
2023-04-27T07:37:31.336Z,28.88
2023-04-27T07:38:31.374Z,26.00
2023-04-27T07:39:31.418Z,23.35
2023-04-27T07:40:31.290Z,20.70
2023-04-27T07:41:31.284Z,22.53
2023-04-27T07:42:31.257Z,30.52
2023-04-27T07:43:31.272Z,33.46
2023-04-27T07:44:31.302Z,44.95
2023-04-27T07:45:31.354Z,40.67
2023-04-27T07:46:31.308Z,41.04
2023-04-27T07:47:31.302Z,42.92
2023-04-27T07:48:31.329Z,51.05
2023-04-27T07:49:31.453Z,55.55
2023-04-27T07:50:31.452Z,63.03
2023-04-27T07:51:31.459Z,67.97
2023-04-27T07:52:31.503Z,71.37
2023-04-27T07:53:31.576Z,73.61
2023-04-27T07:54:31.642Z,72.86
2023-04-27T07:55:31.555Z,72.47
2023-04-27T07:56:31.565Z,70.57
2023-04-27T07:57:31.561Z,70.78
2023-04-27T07:58:31.574Z,70.44
2023-04-27T07:59:31.616Z,66.94
2023-04-27T08:00:31.675Z,69.83
2023-04-27T08:01:31.737Z,69.84
2023-04-27T08:02:31.931Z,70.63
2023-04-27T08:03:32.032Z,70.79
2023-04-27T08:04:32.107Z,71.09
2023-04-27T08:05:32.175Z,72.43
2023-04-27T08:06:32.305Z,71.94
2023-04-27T08:07:32.684Z,71.31
2023-04-27T08:08:32.079Z,73.03
2023-04-27T08:09:32.412Z,73.46
2023-04-27T08:10:32.212Z,74.51
2023-04-27T08:11:32.219Z,73.32
2023-04-27T08:12:32.295Z,74.34
2023-04-27T08:13:32.319Z,75.66
2023-04-27T08:14:32.355Z,75.31
2023-04-27T08:15:32.372Z,72.78
2023-04-27T08:16:32.461Z,71.56
2023-04-27T08:17:32.462Z,70.31
2023-04-27T08:18:32.481Z,68.52
2023-04-27T08:19:32.549Z,67.43
2023-04-27T08:20:32.535Z,67.80
2023-04-27T08:21:32.581Z,70.78
2023-04-27T08:22:32.600Z,71.08
2023-04-27T08:23:32.659Z,65.50
2023-04-27T08:24:32.677Z,68.14
2023-04-27T08:25:32.738Z,62.31
2023-04-27T08:26:32.793Z,66.85
2023-04-27T08:27:32.793Z,62.01
2023-04-27T08:28:32.809Z,64.68
2023-04-27T08:29:33.036Z,63.76
2023-04-27T08:30:32.867Z,64.79
2023-04-27T08:31:32.873Z,65.05
2023-04-27T08:32:32.912Z,55.41
2023-04-27T08:33:32.966Z,51.82
2023-04-27T08:34:33.030Z,39.17
2023-04-27T08:35:33.050Z,25.52
2023-04-27T08:36:33.169Z,22.41
2023-04-27T08:37:33.167Z,23.55
2023-04-27T08:38:33.245Z,25.56
2023-04-27T08:39:33.448Z,25.37
2023-04-27T08:40:33.347Z,25.58
2023-04-27T08:41:33.399Z,27.09
2023-04-27T08:42:33.453Z,28.49
2023-04-27T08:43:33.485Z,31.30
2023-04-27T08:44:33.581Z,32.90
2023-04-27T08:45:33.530Z,31.77
2023-04-27T08:46:33.594Z,33.60
2023-04-27T08:47:42.551Z,31.56
2023-04-27T08:48:34.621Z,29.31
2023-04-27T08:49:33.609Z,27.34
2023-04-27T08:50:33.596Z,26.08
2023-04-27T08:51:33.571Z,21.66
2023-04-27T08:52:33.583Z,27.92
2023-04-27T08:53:33.584Z,12.09
2023-04-27T08:54:33.593Z,10.05
2023-04-27T08:55:34.037Z,9.03
2023-04-27T08:56:33.563Z,12.97
2023-04-27T08:57:33.588Z,20.58
2023-04-27T08:58:33.571Z,25.70
2023-04-27T08:59:33.532Z,32.96
2023-04-27T09:00:33.530Z,38.64
2023-04-27T09:01:33.519Z,45.09
2023-04-27T09:02:33.572Z,51.68
2023-04-27T09:03:33.693Z,58.54
2023-04-27T09:04:33.656Z,66.14
2023-04-27T09:05:33.729Z,73.85
2023-04-27T09:06:33.724Z,83.11
2023-04-27T09:07:33.641Z,89.34
2023-04-27T09:08:33.661Z,98.20
2023-04-27T09:09:33.642Z,107.55
2023-04-27T09:10:33.702Z,113.88
2023-04-27T09:11:33.737Z,120.95
2023-04-27T09:12:33.759Z,128.40
2023-04-27T09:13:33.789Z,136.98
2023-04-27T09:14:33.888Z,147.92
2023-04-27T09:15:33.912Z,157.44
2023-04-27T09:16:34.019Z,165.55
2023-04-27T09:17:34.108Z,170.20
2023-04-27T09:18:34.047Z,179.03
2023-04-27T09:19:34.116Z,183.81
2023-04-27T09:20:34.120Z,189.22
2023-04-27T09:21:34.185Z,193.94
2023-04-27T09:22:34.190Z,201.69
2023-04-27T09:23:34.237Z,203.77
2023-04-27T09:24:34.243Z,205.25
2023-04-27T09:25:34.282Z,212.06
2023-04-27T09:26:34.329Z,219.95
2023-04-27T09:27:34.329Z,222.60
2023-04-27T09:28:34.332Z,229.44
2023-04-27T09:29:34.394Z,232.57
2023-04-27T09:30:34.430Z,229.61
2023-04-27T09:31:34.499Z,227.47
2023-04-27T09:32:34.448Z,229.03
2023-04-27T09:33:34.974Z,232.24
2023-04-27T09:34:34.448Z,240.43
2023-04-27T09:35:35.008Z,241.00
2023-04-27T09:36:34.549Z,248.91
2023-04-27T09:37:34.497Z,248.04
2023-04-27T09:38:34.511Z,252.98
2023-04-27T09:39:34.523Z,258.78
2023-04-27T09:40:34.495Z,258.90
2023-04-27T09:41:34.525Z,263.55
2023-04-27T09:42:34.540Z,273.91
2023-04-27T09:43:34.529Z,66.79
2023-04-27T09:44:34.591Z,20.11
2023-04-27T09:45:34.638Z,11.71
2023-04-27T09:46:34.616Z,8.55
2023-04-27T09:47:34.624Z,5.86
2023-04-27T09:48:34.641Z,3.93
2023-04-27T09:49:34.678Z,3.35
2023-04-27T09:50:36.748Z,3.38
2023-04-27T09:51:34.708Z,3.27
2023-04-27T09:52:34.788Z,2.57
2023-04-27T09:53:34.762Z,1.95
2023-04-27T09:54:34.679Z,1.50
2023-04-27T09:55:34.998Z,1.43
2023-04-27T09:56:34.678Z,1.13
2023-04-27T09:57:34.646Z,1.09
2023-04-27T09:58:34.643Z,1.02
2023-04-27T09:59:34.657Z,0.91
2023-04-27T10:00:35.036Z,0.89
2023-04-27T10:01:37.070Z,0.82
2023-04-27T10:02:42.949Z,0.82
2023-04-27T10:03:35.690Z,0.84
2023-04-27T10:04:34.797Z,0.97
2023-04-27T10:05:34.646Z,1.17
2023-04-27T10:06:34.628Z,1.22
2023-04-27T10:07:34.568Z,1.01
2023-04-27T10:08:34.564Z,0.75
2023-04-27T10:09:34.587Z,0.57
2023-04-27T10:10:34.567Z,0.62
2023-04-27T10:11:34.575Z,0.56
2023-04-27T10:12:34.550Z,0.63
2023-04-27T10:13:34.535Z,0.48
2023-04-27T10:14:34.546Z,0.50
2023-04-27T10:15:34.560Z,0.54
2023-04-27T10:16:35.064Z,0.77
2023-04-27T10:17:34.557Z,1.33
2023-04-27T10:18:34.586Z,1.56
2023-04-27T10:19:34.629Z,2.34
2023-04-27T10:20:34.616Z,3.31
2023-04-27T10:21:34.656Z,4.22
2023-04-27T10:22:35.969Z,4.49
2023-04-27T10:23:34.649Z,5.65
2023-04-27T10:24:34.670Z,7.54
2023-04-27T10:25:34.725Z,8.44
2023-04-27T10:26:36.531Z,9.72
2023-04-27T10:27:34.784Z,11.83
2023-04-27T10:28:34.795Z,14.37
2023-04-27T10:29:34.767Z,17.06
2023-04-27T10:30:34.800Z,18.53
2023-04-27T10:31:35.082Z,21.20
2023-04-27T10:32:34.772Z,23.76
2023-04-27T10:33:34.749Z,25.64
2023-04-27T10:34:34.758Z,28.56
2023-04-27T10:35:35.399Z,29.89
2023-04-27T10:36:35.015Z,21.24
2023-04-27T10:37:34.705Z,12.29
2023-04-27T10:38:34.715Z,8.75
2023-04-27T10:39:47.050Z,7.59
2023-04-27T10:40:35.694Z,7.60
2023-04-27T10:41:35.055Z,7.21
2023-04-27T10:42:34.684Z,6.64
2023-04-27T10:43:34.680Z,6.70
2023-04-27T10:44:34.647Z,3.61
2023-04-27T10:45:34.653Z,1.76
2023-04-27T10:46:35.097Z,1.55
2023-04-27T10:47:34.715Z,1.58
2023-04-27T10:48:34.636Z,1.98
2023-04-27T10:49:34.643Z,2.04
2023-04-27T10:50:34.626Z,2.39
2023-04-27T10:51:34.612Z,2.48
2023-04-27T10:52:34.610Z,3.19
2023-04-27T10:53:34.615Z,3.38
2023-04-27T10:54:34.602Z,3.58
2023-04-27T10:55:34.594Z,4.92
2023-04-27T10:56:35.036Z,5.41
2023-04-27T10:57:34.713Z,8.34
2023-04-27T10:58:48.162Z,4.29
2023-04-27T10:59:35.776Z,2.50
2023-04-27T11:00:34.753Z,2.96
2023-04-27T11:01:35.091Z,4.87
2023-04-27T11:02:34.772Z,6.90
2023-04-27T11:03:34.837Z,10.56
2023-04-27T11:04:34.756Z,15.53
2023-04-27T11:05:34.734Z,18.43
2023-04-27T11:06:34.741Z,9.75
2023-04-27T11:07:34.718Z,8.00
2023-04-27T11:08:34.737Z,4.59
2023-04-27T11:09:34.684Z,4.33
2023-04-27T11:10:34.736Z,3.75
2023-04-27T11:11:34.803Z,4.01
2023-04-27T11:12:34.832Z,5.55
2023-04-27T11:13:34.938Z,7.90
2023-04-27T11:14:34.909Z,11.59
2023-04-27T11:15:34.971Z,13.87
2023-04-27T11:16:35.023Z,15.01
2023-04-27T11:17:35.044Z,16.51
2023-04-27T11:18:35.003Z,18.38
2023-04-27T11:19:34.999Z,20.21
2023-04-27T11:20:35.077Z,21.60
2023-04-27T11:21:35.523Z,21.29
2023-04-27T11:22:35.072Z,21.38
2023-04-27T11:23:35.612Z,22.62
2023-04-27T11:24:35.046Z,22.51
2023-04-27T11:25:35.109Z,23.99
2023-04-27T11:26:35.096Z,24.45
2023-04-27T11:27:35.088Z,24.52
2023-04-27T11:28:35.063Z,24.23
2023-04-27T11:29:35.125Z,24.91
2023-04-27T11:30:35.085Z,24.93
2023-04-27T11:31:35.568Z,22.82
2023-04-27T11:32:35.101Z,22.26
2023-04-27T11:33:36.063Z,23.36
2023-04-27T11:34:35.067Z,22.34
2023-04-27T11:35:35.073Z,24.59
2023-04-27T11:36:35.534Z,25.91
2023-04-27T11:37:35.034Z,29.67
2023-04-27T11:38:35.145Z,29.59
2023-04-27T11:39:35.058Z,30.30
2023-04-27T11:40:35.019Z,30.44
2023-04-27T11:41:35.537Z,29.72
2023-04-27T11:42:35.053Z,29.26
2023-04-27T11:43:35.102Z,29.83
2023-04-27T11:44:35.103Z,29.97
2023-04-27T11:45:35.107Z,30.24
2023-04-27T11:46:35.112Z,31.44
2023-04-27T11:47:35.149Z,31.43
2023-04-27T11:48:35.166Z,31.43
2023-04-27T11:49:35.159Z,32.42
2023-04-27T11:50:35.212Z,30.92
2023-04-27T11:51:35.563Z,29.42
2023-04-27T11:52:35.329Z,28.57
2023-04-27T11:53:35.324Z,27.98
2023-04-27T11:54:35.373Z,26.35
2023-04-27T11:55:35.438Z,25.42
2023-04-27T11:56:35.491Z,24.34
2023-04-27T11:57:35.564Z,23.76
2023-04-27T11:58:35.601Z,23.89
2023-04-27T11:59:35.637Z,25.26
2023-04-27T12:00:35.699Z,25.28
2023-04-27T12:01:38.479Z,25.46
2023-04-27T12:02:35.889Z,25.60
2023-04-27T12:03:36.052Z,26.15
2023-04-27T12:04:35.980Z,25.83
2023-04-27T12:05:35.792Z,25.35
2023-04-27T12:06:35.756Z,24.90
2023-04-27T12:07:35.687Z,25.97
2023-04-27T12:08:35.692Z,24.68
2023-04-27T12:09:35.706Z,24.00
2023-04-27T12:10:35.717Z,24.27
2023-04-27T12:11:35.688Z,23.74
2023-04-27T12:12:35.685Z,23.73
2023-04-27T12:13:35.669Z,23.08
2023-04-27T12:14:35.638Z,22.88
2023-04-27T12:15:35.640Z,21.57
2023-04-27T12:16:35.656Z,20.88
2023-04-27T12:17:35.633Z,20.89
2023-04-27T12:18:35.635Z,21.03
2023-04-27T12:19:35.637Z,20.92
2023-04-27T12:20:35.644Z,21.32
2023-04-27T12:21:35.614Z,21.42
2023-04-27T12:22:35.614Z,21.67
2023-04-27T12:23:35.578Z,21.31
2023-04-27T12:24:35.591Z,21.80
2023-04-27T12:25:35.567Z,21.63
2023-04-27T12:26:35.597Z,21.77
2023-04-27T12:27:35.588Z,21.45
2023-04-27T12:28:35.571Z,20.86
2023-04-27T12:29:35.548Z,21.59
2023-04-27T12:30:35.567Z,20.70
2023-04-27T12:31:35.624Z,19.88
2023-04-27T12:32:35.596Z,19.22
2023-04-27T12:33:35.586Z,18.61
2023-04-27T12:34:35.598Z,18.95
2023-04-27T12:35:35.683Z,14.41
2023-04-27T12:36:35.768Z,15.70
2023-04-27T12:37:35.798Z,17.48
2023-04-27T12:38:35.841Z,17.72
2023-04-27T12:39:35.892Z,17.06
2023-04-27T12:40:35.956Z,17.60
2023-04-27T12:41:36.064Z,17.56
2023-04-27T12:42:36.106Z,16.03
2023-04-27T12:43:36.152Z,15.82
2023-04-27T12:44:36.217Z,16.17
2023-04-27T12:45:36.301Z,16.13
2023-04-27T12:46:36.383Z,16.52
2023-04-27T12:48:36.436Z,17.24
2023-04-27T12:49:36.359Z,13.71
2023-04-27T12:50:36.365Z,8.49
2023-04-27T12:51:36.368Z,9.02